createdAt,value
2022-11-16T00:00:29.229Z,82.47
2022-11-16T00:01:29.210Z,82.47
2022-11-16T00:02:29.274Z,82.68
2022-11-16T00:03:29.185Z,82.47
2022-11-16T00:04:29.160Z,82.57
2022-11-16T00:05:29.186Z,82.68
2022-11-16T00:06:29.963Z,82.68
2022-11-16T00:07:29.173Z,82.68
2022-11-16T00:08:29.090Z,82.68
2022-11-16T00:09:29.123Z,82.68
2022-11-16T00:10:29.112Z,82.68
2022-11-16T00:11:29.061Z,82.57
2022-11-16T00:12:29.040Z,82.68
2022-11-16T00:13:29.043Z,82.68
2022-11-16T00:14:29.064Z,82.68
2022-11-16T00:15:29.027Z,82.57
2022-11-16T00:16:29.041Z,82.57
2022-11-16T00:17:29.026Z,82.47
2022-11-16T00:18:28.991Z,82.68
2022-11-16T00:19:28.981Z,82.57
2022-11-16T00:20:28.952Z,82.06
2022-11-16T00:21:29.013Z,81.96
2022-11-16T00:22:28.934Z,81.96
2022-11-16T00:23:28.913Z,82.06
2022-11-16T00:24:28.918Z,82.17
2022-11-16T00:25:28.929Z,82.17
2022-11-16T00:26:28.958Z,82.06
2022-11-16T00:27:28.876Z,81.76
2022-11-16T00:28:28.865Z,81.65
2022-11-16T00:29:28.858Z,81.65
2022-11-16T00:30:28.841Z,81.65
2022-11-16T00:31:28.861Z,81.14
2022-11-16T00:32:28.846Z,80.93
2022-11-16T00:33:28.809Z,81.24
2022-11-16T00:34:28.786Z,81.24
2022-11-16T00:35:28.777Z,81.34
2022-11-16T00:36:28.830Z,81.45
2022-11-16T00:37:28.759Z,81.55
2022-11-16T00:38:28.795Z,81.55
2022-11-16T00:39:28.737Z,81.55
2022-11-16T00:40:28.737Z,81.65
2022-11-16T00:41:28.732Z,81.86
2022-11-16T00:42:28.718Z,82.06
2022-11-16T00:43:28.710Z,81.86
2022-11-16T00:44:28.682Z,81.96
2022-11-16T00:45:28.682Z,81.86
2022-11-16T00:46:28.653Z,82.06
2022-11-16T00:47:28.717Z,81.96
2022-11-16T00:48:28.652Z,82.06
2022-11-16T00:49:28.622Z,81.96
2022-11-16T00:50:28.646Z,81.96
2022-11-16T00:51:28.603Z,82.06
2022-11-16T00:52:28.593Z,82.27
2022-11-16T00:53:28.601Z,82.37
2022-11-16T00:54:28.571Z,82.47
2022-11-16T00:55:28.540Z,82.37
2022-11-16T00:56:28.546Z,82.37
2022-11-16T00:57:28.513Z,82.62
2022-11-16T00:58:28.521Z,82.71
2022-11-16T00:59:28.566Z,82.71
2022-11-16T01:00:28.506Z,82.71
2022-11-16T01:01:28.581Z,82.71
2022-11-16T01:02:28.487Z,82.92
2022-11-16T01:03:28.483Z,83.23
2022-11-16T01:04:28.493Z,83.33
2022-11-16T01:05:28.429Z,83.13
2022-11-16T01:06:28.426Z,82.82
2022-11-16T01:07:28.518Z,83.03
2022-11-16T01:08:28.411Z,83.13
2022-11-16T01:09:28.458Z,83.03
2022-11-16T01:10:28.377Z,83.23
2022-11-16T01:11:28.413Z,83.54
2022-11-16T01:12:28.347Z,83.54
2022-11-16T01:13:28.348Z,83.78
2022-11-16T01:14:28.349Z,83.68
2022-11-16T01:15:28.360Z,83.89
2022-11-16T01:16:28.336Z,84.09
2022-11-16T01:17:28.300Z,84.09
2022-11-16T01:18:28.309Z,84.09
2022-11-16T01:19:28.290Z,84.09
2022-11-16T01:20:28.331Z,83.99
2022-11-16T01:21:28.267Z,83.85
2022-11-16T01:22:28.257Z,83.75
2022-11-16T01:23:28.209Z,83.44
2022-11-16T01:24:28.220Z,83.13
2022-11-16T01:25:28.228Z,83.13
2022-11-16T01:26:28.230Z,83.03
2022-11-16T01:27:28.189Z,82.92
2022-11-16T01:28:28.169Z,83.03
2022-11-16T01:29:28.187Z,82.71
2022-11-16T01:30:28.199Z,82.51
2022-11-16T01:31:28.217Z,82.20
2022-11-16T01:32:28.133Z,82.10
2022-11-16T01:33:28.098Z,82.00
2022-11-16T01:34:28.133Z,81.90
2022-11-16T01:35:28.093Z,81.90
2022-11-16T01:36:28.060Z,81.69
2022-11-16T01:37:28.133Z,81.79
2022-11-16T01:38:30.027Z,81.69
2022-11-16T01:39:28.042Z,81.69
2022-11-16T01:40:28.022Z,81.90
2022-11-16T01:41:28.056Z,82.10
2022-11-16T01:42:28.065Z,82.10
2022-11-16T01:43:27.995Z,82.10
2022-11-16T01:44:27.964Z,82.31
2022-11-16T01:45:27.963Z,82.41
2022-11-16T01:46:27.965Z,82.41
2022-11-16T01:47:28.005Z,82.45
2022-11-16T01:48:28.017Z,82.55
2022-11-16T01:49:27.962Z,82.96
2022-11-16T01:50:28.124Z,82.86
2022-11-16T01:51:27.911Z,82.96
2022-11-16T01:52:27.914Z,82.96
2022-11-16T01:53:27.878Z,82.86
2022-11-16T01:54:27.874Z,82.96
2022-11-16T01:55:27.858Z,83.17
2022-11-16T01:56:27.859Z,83.06
2022-11-16T01:57:27.889Z,83.06
2022-11-16T01:58:27.830Z,83.06
2022-11-16T01:59:27.840Z,83.27
2022-11-16T02:00:27.816Z,83.17
2022-11-16T02:01:27.912Z,82.96
2022-11-16T02:02:27.770Z,83.17
2022-11-16T02:03:27.777Z,83.17
2022-11-16T02:04:27.771Z,83.17
2022-11-16T02:05:27.739Z,83.17
2022-11-16T02:06:27.732Z,83.17
2022-11-16T02:07:27.743Z,83.17
2022-11-16T02:08:27.742Z,83.17
2022-11-16T02:09:27.698Z,82.96
2022-11-16T02:10:27.683Z,82.86
2022-11-16T02:11:27.660Z,82.76
2022-11-16T02:12:27.712Z,82.76
2022-11-16T02:13:27.650Z,82.55
2022-11-16T02:14:27.659Z,82.55
2022-11-16T02:15:27.647Z,82.65
2022-11-16T02:16:27.612Z,82.76
2022-11-16T02:17:27.634Z,82.55
2022-11-16T02:18:27.580Z,82.55
2022-11-16T02:19:27.610Z,82.34
2022-11-16T02:20:27.619Z,82.65
2022-11-16T02:21:27.576Z,82.65
2022-11-16T02:22:27.554Z,82.14
2022-11-16T02:23:27.578Z,82.04
2022-11-16T02:24:27.511Z,82.00
2022-11-16T02:25:27.532Z,82.00
2022-11-16T02:26:27.506Z,81.90
2022-11-16T02:27:27.512Z,81.90
2022-11-16T02:28:27.516Z,81.79
2022-11-16T02:29:27.466Z,81.79
2022-11-16T02:30:27.464Z,81.90
2022-11-16T02:31:27.449Z,81.90
2022-11-16T02:32:27.413Z,82.00
2022-11-16T02:33:27.469Z,82.10
2022-11-16T02:34:27.417Z,82.10
2022-11-16T02:35:27.405Z,82.31
2022-11-16T02:36:27.374Z,82.31
2022-11-16T02:37:27.375Z,82.31
2022-11-16T02:38:27.384Z,82.20
2022-11-16T02:39:27.420Z,82.34
2022-11-16T02:40:27.359Z,82.41
2022-11-16T02:41:27.328Z,82.31
2022-11-16T02:42:27.316Z,82.41
2022-11-16T02:43:27.348Z,82.51
2022-11-16T02:44:27.289Z,82.45
2022-11-16T02:45:27.286Z,82.55
2022-11-16T02:46:27.257Z,82.86
2022-11-16T02:47:27.260Z,82.96
2022-11-16T02:48:27.281Z,82.86
2022-11-16T02:49:27.243Z,82.86
2022-11-16T02:50:27.249Z,83.06
2022-11-16T02:51:27.212Z,83.06
2022-11-16T02:52:27.189Z,83.17
2022-11-16T02:53:27.240Z,83.27
2022-11-16T02:54:27.193Z,83.27
2022-11-16T02:55:27.180Z,82.96
2022-11-16T02:56:27.154Z,82.76
2022-11-16T02:57:27.148Z,82.86
2022-11-16T02:58:27.201Z,82.96
2022-11-16T02:59:27.161Z,82.76
2022-11-16T03:00:27.139Z,82.65
2022-11-16T03:01:27.158Z,82.65
2022-11-16T03:02:27.086Z,82.86
2022-11-16T03:03:27.222Z,82.76
2022-11-16T03:04:27.049Z,82.86
2022-11-16T03:05:27.041Z,82.86
2022-11-16T03:06:27.044Z,82.76
2022-11-16T03:07:27.142Z,82.62
2022-11-16T03:08:27.009Z,82.55
2022-11-16T03:09:27.041Z,82.45
2022-11-16T03:10:26.982Z,82.55
2022-11-16T03:11:27.006Z,82.86
2022-11-16T03:12:26.966Z,83.17
2022-11-16T03:13:26.945Z,83.17
2022-11-16T03:14:26.975Z,83.17
2022-11-16T03:15:26.967Z,83.17
2022-11-16T03:16:26.927Z,83.48
2022-11-16T03:17:26.905Z,83.27
2022-11-16T03:18:26.896Z,83.17
2022-11-16T03:19:26.889Z,83.17
2022-11-16T03:20:26.930Z,83.06
2022-11-16T03:21:26.853Z,82.96
2022-11-16T03:22:26.845Z,83.17
2022-11-16T03:23:26.826Z,83.06
2022-11-16T03:24:26.826Z,83.27
2022-11-16T03:25:26.880Z,83.48
2022-11-16T03:26:26.810Z,83.58
2022-11-16T03:27:26.794Z,83.68
2022-11-16T03:28:26.819Z,83.48
2022-11-16T03:29:26.757Z,83.58
2022-11-16T03:30:26.798Z,83.68
2022-11-16T03:31:26.735Z,83.68
2022-11-16T03:32:26.733Z,83.68
2022-11-16T03:33:26.719Z,83.48
2022-11-16T03:34:26.721Z,83.37
2022-11-16T03:35:26.749Z,83.48
2022-11-16T03:36:26.696Z,83.37
2022-11-16T03:37:26.660Z,83.17
2022-11-16T03:38:26.666Z,83.17
2022-11-16T03:39:26.645Z,83.17
2022-11-16T03:40:26.651Z,83.27
2022-11-16T03:41:26.640Z,83.27
2022-11-16T03:42:26.624Z,83.27
2022-11-16T03:43:26.611Z,83.37
2022-11-16T03:44:26.605Z,83.48
2022-11-16T03:45:26.570Z,83.37
2022-11-16T03:46:26.623Z,83.68
2022-11-16T03:47:26.592Z,83.68
2022-11-16T03:48:26.561Z,83.48
2022-11-16T03:49:26.566Z,83.48
2022-11-16T03:50:26.553Z,83.27
2022-11-16T03:51:26.554Z,83.48
2022-11-16T03:52:26.535Z,83.48
2022-11-16T03:53:26.532Z,83.27
2022-11-16T03:54:26.484Z,83.06
2022-11-16T03:55:26.452Z,83.17
2022-11-16T03:56:26.432Z,83.37
2022-11-16T03:57:26.483Z,83.37
2022-11-16T03:58:26.444Z,83.27
2022-11-16T03:59:26.447Z,83.48
2022-11-16T04:00:26.417Z,83.48
2022-11-16T04:01:26.411Z,83.48
2022-11-16T04:02:26.384Z,83.37
2022-11-16T04:03:26.366Z,83.48
2022-11-16T04:04:26.416Z,83.37
2022-11-16T04:05:26.371Z,83.27
2022-11-16T04:06:26.328Z,83.37
2022-11-16T04:07:26.355Z,83.48
2022-11-16T04:08:26.326Z,83.48
2022-11-16T04:09:26.319Z,83.48
2022-11-16T04:10:26.339Z,83.58
2022-11-16T04:11:26.321Z,83.51
2022-11-16T04:12:26.270Z,83.72
2022-11-16T04:13:26.257Z,83.83
2022-11-16T04:14:26.228Z,83.83
2022-11-16T04:15:26.250Z,83.83
2022-11-16T04:16:26.247Z,83.92
2022-11-16T04:17:26.196Z,84.13
2022-11-16T04:18:26.261Z,84.34
2022-11-16T04:19:26.196Z,84.34
2022-11-16T04:20:26.213Z,84.34
2022-11-16T04:21:26.170Z,84.23
2022-11-16T04:22:26.153Z,83.83
2022-11-16T04:23:26.143Z,83.83
2022-11-16T04:24:26.183Z,83.72
2022-11-16T04:25:26.100Z,83.62
2022-11-16T04:26:26.090Z,83.48
2022-11-16T04:27:26.091Z,83.62
2022-11-16T04:28:26.080Z,83.58
2022-11-16T04:29:26.103Z,83.62
2022-11-16T04:30:26.075Z,83.72
2022-11-16T04:31:26.042Z,83.62
2022-11-16T04:32:26.052Z,83.48
2022-11-16T04:33:26.054Z,83.31
2022-11-16T04:34:26.075Z,83.31
2022-11-16T04:35:26.008Z,83.31
2022-11-16T04:36:25.998Z,83.27
2022-11-16T04:37:25.983Z,83.06
2022-11-16T04:38:25.951Z,82.65
2022-11-16T04:39:26.016Z,82.55
2022-11-16T04:40:25.954Z,82.34
2022-11-16T04:41:25.923Z,82.14
2022-11-16T04:42:25.920Z,82.14
2022-11-16T04:43:25.930Z,82.14
2022-11-16T04:44:29.891Z,81.93
2022-11-16T04:45:25.878Z,81.93
2022-11-16T04:46:25.868Z,81.93
2022-11-16T04:47:25.866Z,82.04
2022-11-16T04:48:25.859Z,82.24
2022-11-16T04:49:25.848Z,82.14
2022-11-16T04:50:25.870Z,82.24
2022-11-16T04:51:25.818Z,82.34
2022-11-16T04:52:25.795Z,82.45
2022-11-16T04:53:25.782Z,82.45
2022-11-16T04:54:25.769Z,82.24
2022-11-16T04:55:25.821Z,82.14
2022-11-16T04:56:25.765Z,82.04
2022-11-16T04:57:25.754Z,81.93
2022-11-16T04:58:25.748Z,82.04
2022-11-16T04:59:25.711Z,82.24
2022-11-16T05:00:25.763Z,82.14
2022-11-16T05:01:25.789Z,82.04
2022-11-16T05:02:25.699Z,82.04
2022-11-16T05:03:25.670Z,81.93
2022-11-16T05:04:25.669Z,82.04
2022-11-16T05:05:25.671Z,82.04
2022-11-16T05:06:25.681Z,82.24
2022-11-16T05:07:25.723Z,82.14
2022-11-16T05:08:25.631Z,82.14
2022-11-16T05:09:25.605Z,82.04
2022-11-16T05:10:25.606Z,82.04
2022-11-16T05:11:25.572Z,82.24
2022-11-16T05:12:25.619Z,82.14
2022-11-16T05:13:25.543Z,82.14
2022-11-16T05:14:25.576Z,82.04
2022-11-16T05:15:25.551Z,82.24
2022-11-16T05:16:25.513Z,82.04
2022-11-16T05:17:25.506Z,82.14
2022-11-16T05:18:25.513Z,82.14
2022-11-16T05:19:25.504Z,81.93
2022-11-16T05:20:25.474Z,81.83
2022-11-16T05:21:25.455Z,81.83
2022-11-16T05:22:25.460Z,81.83
2022-11-16T05:23:25.465Z,82.14
2022-11-16T05:24:25.438Z,82.24
2022-11-16T05:25:25.439Z,82.34
2022-11-16T05:26:25.409Z,82.34
2022-11-16T05:27:25.386Z,82.45
2022-11-16T05:28:25.396Z,82.24
2022-11-16T05:29:25.367Z,82.24
2022-11-16T05:30:25.359Z,82.55
2022-11-16T05:31:25.370Z,82.65
2022-11-16T05:32:25.337Z,82.55
2022-11-16T05:33:25.357Z,82.76
2022-11-16T05:34:25.320Z,82.76
2022-11-16T05:35:25.390Z,82.86
2022-11-16T05:36:25.302Z,82.96
2022-11-16T05:37:25.269Z,82.96
2022-11-16T05:38:25.259Z,83.11
2022-11-16T05:39:25.272Z,83.20
2022-11-16T05:40:25.249Z,83.20
2022-11-16T05:41:25.253Z,83.20
2022-11-16T05:42:25.233Z,83.20
2022-11-16T05:43:25.240Z,83.11
2022-11-16T05:44:25.201Z,83.20
2022-11-16T05:45:25.183Z,83.51
2022-11-16T05:46:25.215Z,83.72
2022-11-16T05:47:25.154Z,83.62
2022-11-16T05:48:25.169Z,83.41
2022-11-16T05:49:25.158Z,83.51
2022-11-16T05:50:25.155Z,83.51
2022-11-16T05:51:25.164Z,83.27
2022-11-16T05:52:25.116Z,83.17
2022-11-16T05:53:25.149Z,82.96
2022-11-16T05:54:25.092Z,82.86
2022-11-16T05:55:25.067Z,82.76
2022-11-16T05:56:25.129Z,82.55
2022-11-16T05:57:25.086Z,82.55
2022-11-16T05:58:25.053Z,82.55
2022-11-16T05:59:25.027Z,82.69
2022-11-16T06:00:25.026Z,82.65
2022-11-16T06:01:25.034Z,82.59
2022-11-16T06:02:25.039Z,82.48
2022-11-16T06:03:25.099Z,82.48
2022-11-16T06:04:27.561Z,82.59
2022-11-16T06:05:25.003Z,82.48
2022-11-16T06:06:24.940Z,82.55
2022-11-16T06:07:25.060Z,82.55
2022-11-16T06:08:24.922Z,82.55
2022-11-16T06:09:24.920Z,82.34
2022-11-16T06:10:24.902Z,82.45
2022-11-16T06:11:24.868Z,82.55
2022-11-16T06:12:24.910Z,82.34
2022-11-16T06:13:24.889Z,82.45
2022-11-16T06:14:24.851Z,82.65
2022-11-16T06:15:24.852Z,82.55
2022-11-16T06:16:24.828Z,82.55
2022-11-16T06:17:24.828Z,82.55
2022-11-16T06:18:24.924Z,82.65
2022-11-16T06:19:28.288Z,82.65
2022-11-16T06:20:25.800Z,82.65
2022-11-16T06:21:24.759Z,82.55
2022-11-16T06:22:24.755Z,82.34
2022-11-16T06:23:24.800Z,82.65
2022-11-16T06:24:24.773Z,82.55
2022-11-16T06:25:24.736Z,82.34
2022-11-16T06:26:24.702Z,82.14
2022-11-16T06:27:24.720Z,81.93
2022-11-16T06:28:24.715Z,81.97
2022-11-16T06:29:24.671Z,82.07
2022-11-16T06:30:24.687Z,82.59
2022-11-16T06:31:24.683Z,82.28
2022-11-16T06:32:24.728Z,82.34
2022-11-16T06:33:24.686Z,82.24
2022-11-16T06:34:24.628Z,82.04
2022-11-16T06:35:24.606Z,81.83
2022-11-16T06:36:24.624Z,81.62
2022-11-16T06:37:24.577Z,81.73
2022-11-16T06:38:24.615Z,81.93
2022-11-16T06:39:24.547Z,81.73
2022-11-16T06:40:24.567Z,81.73
2022-11-16T06:41:24.587Z,81.83
2022-11-16T06:42:24.535Z,81.83
2022-11-16T06:43:24.586Z,81.83
2022-11-16T06:44:24.506Z,81.83
2022-11-16T06:45:24.495Z,82.04
2022-11-16T06:46:24.524Z,81.83
2022-11-16T06:47:24.490Z,81.83
2022-11-16T06:48:24.458Z,81.83
2022-11-16T06:49:24.486Z,81.73
2022-11-16T06:50:24.480Z,81.62
2022-11-16T06:51:24.473Z,81.52
2022-11-16T06:52:24.420Z,81.21
2022-11-16T06:53:28.997Z,81.21
2022-11-16T06:54:24.506Z,81.32
2022-11-16T06:55:24.411Z,81.52
2022-11-16T06:56:24.373Z,81.73
2022-11-16T06:57:24.349Z,81.83
2022-11-16T06:58:24.366Z,81.93
2022-11-16T06:59:24.318Z,82.04
2022-11-16T07:00:24.427Z,82.04
2022-11-16T07:01:24.393Z,82.04
2022-11-16T07:02:24.335Z,81.93
2022-11-16T07:03:24.303Z,81.93
2022-11-16T07:04:24.310Z,82.04
2022-11-16T07:05:24.267Z,82.04
2022-11-16T07:06:24.283Z,82.14
2022-11-16T07:07:24.299Z,81.93
2022-11-16T07:08:24.226Z,81.83
2022-11-16T07:09:24.216Z,81.93
2022-11-16T07:10:24.247Z,81.93
2022-11-16T07:11:24.194Z,82.14
2022-11-16T07:12:24.186Z,82.24
2022-11-16T07:13:24.198Z,82.04
2022-11-16T07:14:24.176Z,82.04
2022-11-16T07:15:24.170Z,81.62
2022-11-16T07:16:24.148Z,81.62
2022-11-16T07:17:24.138Z,82.04
2022-11-16T07:18:24.121Z,82.04
2022-11-16T07:19:24.096Z,82.14
2022-11-16T07:20:24.112Z,82.14
2022-11-16T07:21:24.128Z,82.14
2022-11-16T07:22:24.068Z,82.14
2022-11-16T07:23:24.098Z,82.14
2022-11-16T07:24:24.036Z,82.20
2022-11-16T07:25:24.137Z,82.20
2022-11-16T07:26:24.084Z,82.20
2022-11-16T07:27:24.010Z,82.10
2022-11-16T07:28:23.996Z,82.51
2022-11-16T07:29:24.028Z,82.51
2022-11-16T07:30:23.978Z,82.31
2022-11-16T07:31:23.938Z,82.51
2022-11-16T07:32:23.958Z,82.41
2022-11-16T07:33:23.982Z,82.51
2022-11-16T07:34:23.953Z,82.41
2022-11-16T07:35:23.991Z,82.71
2022-11-16T07:36:23.933Z,82.17
2022-11-16T07:37:23.929Z,82.17
2022-11-16T07:38:23.885Z,81.76
2022-11-16T07:39:23.873Z,81.04
2022-11-16T07:40:23.873Z,81.14
2022-11-16T07:41:23.902Z,81.24
2022-11-16T07:42:23.870Z,81.24
2022-11-16T07:43:23.846Z,81.45
2022-11-16T07:44:23.866Z,81.45
2022-11-16T07:45:23.806Z,81.34
2022-11-16T07:47:24.802Z,81.34
2022-11-16T07:48:23.736Z,80.90
2022-11-16T07:49:23.818Z,81.20
2022-11-16T07:50:23.743Z,81.10
2022-11-16T07:51:23.765Z,81.00
2022-11-16T07:52:23.747Z,81.20
2022-11-16T07:53:23.730Z,81.10
2022-11-16T07:54:23.684Z,81.20
2022-11-16T07:55:23.676Z,81.00
2022-11-16T07:56:23.888Z,81.00
2022-11-16T07:57:23.728Z,80.38
2022-11-16T07:58:23.675Z,80.38
2022-11-16T07:59:23.666Z,80.18
2022-11-16T08:00:23.630Z,80.28
2022-11-16T08:01:23.622Z,80.18
2022-11-16T08:02:23.621Z,80.07
2022-11-16T08:03:24.863Z,80.07
2022-11-16T08:04:23.632Z,80.28
2022-11-16T08:05:23.592Z,80.28
2022-11-16T08:06:23.547Z,79.83
2022-11-16T08:07:23.659Z,80.04
2022-11-16T08:08:23.541Z,80.04
2022-11-16T08:09:23.645Z,80.55
2022-11-16T08:10:23.741Z,80.65
2022-11-16T08:11:23.869Z,80.86
2022-11-16T08:12:23.538Z,81.06
2022-11-16T08:13:23.503Z,80.76
2022-11-16T08:14:23.472Z,80.45
2022-11-16T08:15:23.454Z,80.76
2022-11-16T08:16:23.461Z,81.06
2022-11-16T08:17:23.457Z,81.57
2022-11-16T08:18:23.556Z,82.19
2022-11-16T08:19:23.389Z,82.29
2022-11-16T08:20:24.423Z,82.70
2022-11-16T08:21:23.408Z,82.60
2022-11-16T08:22:23.394Z,82.29
2022-11-16T08:23:23.369Z,81.88
2022-11-16T08:24:23.388Z,81.88
2022-11-16T08:25:23.339Z,81.88
2022-11-16T08:26:23.336Z,81.99
2022-11-16T08:27:23.284Z,82.40
2022-11-16T08:28:23.287Z,82.50
2022-11-16T08:29:23.378Z,82.46
2022-11-16T08:30:23.283Z,82.15
2022-11-16T08:31:23.280Z,82.05
2022-11-16T08:32:23.256Z,81.85
2022-11-16T08:33:23.271Z,81.85
2022-11-16T08:34:23.248Z,81.74
2022-11-16T08:35:23.237Z,81.95
2022-11-16T08:36:23.187Z,82.05
2022-11-16T08:37:23.208Z,81.85
2022-11-16T08:38:23.184Z,81.60
2022-11-16T08:39:23.177Z,81.71
2022-11-16T08:40:23.206Z,82.42
2022-11-16T08:41:23.129Z,82.01
2022-11-16T08:42:23.261Z,81.81
2022-11-16T08:43:23.152Z,82.32
2022-11-16T08:44:23.111Z,81.71
2022-11-16T08:45:23.145Z,81.40
2022-11-16T08:46:23.152Z,79.96
2022-11-16T08:47:23.113Z,80.17
2022-11-16T08:48:23.133Z,80.88
2022-11-16T08:49:23.031Z,80.78
2022-11-16T08:50:23.043Z,80.37
2022-11-16T08:51:23.043Z,80.03
2022-11-16T08:52:23.057Z,79.93
2022-11-16T08:53:23.035Z,79.75
2022-11-16T08:54:23.118Z,80.07
2022-11-16T08:55:23.014Z,80.27
2022-11-16T08:56:23.035Z,80.07
2022-11-16T08:57:22.973Z,80.17
2022-11-16T08:58:22.971Z,80.37
2022-11-16T08:59:22.957Z,80.78
2022-11-16T09:00:22.932Z,80.82
2022-11-16T09:01:22.995Z,81.54
2022-11-16T09:02:22.955Z,81.74
2022-11-16T09:03:22.902Z,81.23
2022-11-16T09:04:22.907Z,81.54
2022-11-16T09:05:22.882Z,81.74
2022-11-16T09:06:22.863Z,81.23
2022-11-16T09:07:22.936Z,81.34
2022-11-16T09:08:22.833Z,81.34
2022-11-16T09:09:22.827Z,81.54
2022-11-16T09:10:22.799Z,81.85
2022-11-16T09:11:22.859Z,81.85
2022-11-16T09:12:22.802Z,81.95
2022-11-16T09:13:22.820Z,81.85
2022-11-16T09:14:23.047Z,81.64
2022-11-16T09:15:22.759Z,81.74
2022-11-16T09:16:22.788Z,81.60
2022-11-16T09:17:23.360Z,81.40
2022-11-16T09:18:22.748Z,81.74
2022-11-16T09:19:22.692Z,82.32
2022-11-16T09:20:22.793Z,82.83
2022-11-16T09:21:22.717Z,82.01
2022-11-16T09:22:22.670Z,81.91
2022-11-16T09:23:25.518Z,82.01
2022-11-16T09:24:22.653Z,82.53
2022-11-16T09:25:22.678Z,82.22
2022-11-16T09:26:22.670Z,81.81
2022-11-16T09:27:22.660Z,81.91
2022-11-16T09:28:22.664Z,82.01
2022-11-16T09:29:22.614Z,82.22
2022-11-16T09:30:22.576Z,82.01
2022-11-16T09:31:23.894Z,82.12
2022-11-16T09:32:22.654Z,82.53
2022-11-16T09:33:22.615Z,82.63
2022-11-16T09:34:22.566Z,82.93
2022-11-16T09:35:22.521Z,82.73
2022-11-16T09:36:22.533Z,82.12
2022-11-16T09:37:22.534Z,82.32
2022-11-16T09:38:34.894Z,82.42
2022-11-16T09:39:31.076Z,82.63
2022-11-16T09:40:23.556Z,82.73
2022-11-16T09:41:22.574Z,82.53
2022-11-16T09:42:22.435Z,82.63
2022-11-16T09:43:22.424Z,82.56
2022-11-16T09:44:22.483Z,82.87
2022-11-16T09:45:22.463Z,83.25
2022-11-16T09:46:22.443Z,83.25
2022-11-16T09:47:22.471Z,83.76
2022-11-16T09:48:22.403Z,83.04
2022-11-16T09:49:22.365Z,83.04
2022-11-16T09:50:22.448Z,83.65
2022-11-16T09:51:22.359Z,84.68
2022-11-16T09:52:22.320Z,84.88
2022-11-16T09:53:22.331Z,84.68
2022-11-16T09:54:22.331Z,84.88
2022-11-16T09:55:22.401Z,84.78
2022-11-16T09:56:22.702Z,84.27
2022-11-16T09:57:22.369Z,83.76
2022-11-16T09:58:22.289Z,82.53
2022-11-16T09:59:23.334Z,82.22
2022-11-16T10:00:22.305Z,82.01
2022-11-16T10:01:22.341Z,81.29
2022-11-16T10:02:22.290Z,81.60
2022-11-16T10:03:22.235Z,82.12
2022-11-16T10:04:22.170Z,82.32
2022-11-16T10:05:22.232Z,82.22
2022-11-16T10:06:22.169Z,81.71
2022-11-16T10:07:22.185Z,82.93
2022-11-16T10:08:22.209Z,82.01
2022-11-16T10:09:22.199Z,82.15
2022-11-16T10:10:22.145Z,82.26
2022-11-16T10:11:22.126Z,82.26
2022-11-16T10:12:22.126Z,82.87
2022-11-16T10:13:22.083Z,82.56
2022-11-16T10:14:22.083Z,82.67
2022-11-16T10:15:22.065Z,82.87
2022-11-16T10:16:22.052Z,82.97
2022-11-16T10:17:22.061Z,83.01
2022-11-16T10:18:22.033Z,83.22
2022-11-16T10:19:22.125Z,83.53
2022-11-16T10:20:26.230Z,83.32
2022-11-16T10:21:23.014Z,83.42
2022-11-16T10:22:22.046Z,83.49
2022-11-16T10:23:21.954Z,83.59
2022-11-16T10:24:21.989Z,83.39
2022-11-16T10:25:21.966Z,83.07
2022-11-16T10:26:21.937Z,83.04
2022-11-16T10:27:22.346Z,82.73
2022-11-16T10:28:21.924Z,82.53
2022-11-16T10:29:21.925Z,82.67
2022-11-16T10:30:21.967Z,82.36
2022-11-16T10:31:21.908Z,83.39
2022-11-16T10:32:21.860Z,83.39
2022-11-16T10:33:21.857Z,83.90
2022-11-16T10:34:21.863Z,84.20
2022-11-16T10:35:21.843Z,82.56
2022-11-16T10:36:21.855Z,82.73
2022-11-16T10:37:22.060Z,83.04
2022-11-16T10:38:21.836Z,83.45
2022-11-16T10:39:21.790Z,83.45
2022-11-16T10:40:21.819Z,82.90
2022-11-16T10:41:21.775Z,82.59
2022-11-16T10:42:21.825Z,81.87
2022-11-16T10:43:21.765Z,82.08
2022-11-16T10:44:21.738Z,82.18
2022-11-16T10:45:21.701Z,82.18
2022-11-16T10:46:21.749Z,82.86
2022-11-16T10:47:21.701Z,83.06
2022-11-16T10:48:21.704Z,83.27
2022-11-16T10:49:21.660Z,83.47
2022-11-16T10:50:22.287Z,83.47
2022-11-16T10:51:21.639Z,83.27
2022-11-16T10:52:21.663Z,83.68
2022-11-16T10:53:21.656Z,83.37
2022-11-16T10:54:21.623Z,83.06
2022-11-16T10:55:21.592Z,83.47
2022-11-16T10:56:21.598Z,83.78
2022-11-16T10:57:21.623Z,83.17
2022-11-16T10:58:21.566Z,82.65
2022-11-16T10:59:21.576Z,82.86
2022-11-16T11:00:22.385Z,82.86
2022-11-16T11:01:21.648Z,83.78
2022-11-16T11:02:21.548Z,84.09
2022-11-16T11:03:21.518Z,84.50
2022-11-16T11:04:21.503Z,84.80
2022-11-16T11:05:21.498Z,84.36
2022-11-16T11:06:21.508Z,84.25
2022-11-16T11:07:21.637Z,84.05
2022-11-16T11:08:21.440Z,82.82
2022-11-16T11:09:21.457Z,82.55
2022-11-16T11:10:21.523Z,83.37
2022-11-16T11:11:21.461Z,83.88
2022-11-16T11:12:21.406Z,84.09
2022-11-16T11:13:21.409Z,84.70
2022-11-16T11:14:21.434Z,84.80
2022-11-16T11:15:25.493Z,84.70
2022-11-16T11:16:21.372Z,84.60
2022-11-16T11:17:21.350Z,84.39
2022-11-16T11:18:21.350Z,84.50
2022-11-16T11:19:21.358Z,84.19
2022-11-16T11:20:21.331Z,84.19
2022-11-16T11:21:21.379Z,84.29
2022-11-16T11:22:21.306Z,84.50
2022-11-16T11:23:21.291Z,84.29
2022-11-16T11:25:22.256Z,84.29
2022-11-16T11:26:21.288Z,84.80
2022-11-16T11:27:21.243Z,84.29
2022-11-16T11:28:21.266Z,84.60
2022-11-16T11:29:21.205Z,84.70
2022-11-16T11:30:21.209Z,85.11
2022-11-16T11:31:21.185Z,85.01
2022-11-16T11:32:24.453Z,85.01
2022-11-16T11:33:21.175Z,85.11
2022-11-16T11:34:21.142Z,84.91
2022-11-16T11:35:21.126Z,85.11
2022-11-16T11:36:21.174Z,85.31
2022-11-16T11:37:21.152Z,84.80
2022-11-16T11:38:21.105Z,85.01
2022-11-16T11:39:21.184Z,85.42
2022-11-16T11:40:21.105Z,85.63
2022-11-16T11:41:21.046Z,85.72
2022-11-16T11:42:21.155Z,85.42
2022-11-16T11:43:21.110Z,85.52
2022-11-16T11:44:21.077Z,85.72
2022-11-16T11:45:21.041Z,85.42
2022-11-16T11:46:21.040Z,85.42
2022-11-16T11:47:56.874Z,85.42
2022-11-16T11:48:21.991Z,85.42
2022-11-16T11:49:20.987Z,85.93
2022-11-16T11:50:20.983Z,86.04
2022-11-16T11:51:20.993Z,85.83
2022-11-16T11:52:20.954Z,85.83
2022-11-16T11:53:20.929Z,85.83
2022-11-16T11:54:20.918Z,86.04
2022-11-16T11:55:20.933Z,86.04
2022-11-16T11:56:20.900Z,85.72
2022-11-16T11:57:20.941Z,85.83
2022-11-16T11:58:20.910Z,86.14
2022-11-16T11:59:20.877Z,85.72
2022-11-16T12:00:20.849Z,85.63
2022-11-16T12:01:25.114Z,85.87
2022-11-16T12:02:20.871Z,85.97
2022-11-16T12:03:20.894Z,86.18
2022-11-16T12:04:20.834Z,86.38
2022-11-16T12:05:20.786Z,86.55
2022-11-16T12:06:20.815Z,86.24
2022-11-16T12:07:20.876Z,86.24
2022-11-16T12:08:20.757Z,86.24
2022-11-16T12:09:20.750Z,86.34
2022-11-16T12:10:20.777Z,86.24
2022-11-16T12:11:20.730Z,86.55
2022-11-16T12:12:20.737Z,86.44
2022-11-16T12:13:20.708Z,86.44
2022-11-16T12:14:20.726Z,86.75
2022-11-16T12:15:20.708Z,86.34
2022-11-16T12:16:20.711Z,86.44
2022-11-16T12:17:20.662Z,86.44
2022-11-16T12:18:20.636Z,86.44
2022-11-16T12:19:20.614Z,86.34
2022-11-16T12:20:23.700Z,85.93
2022-11-16T12:21:20.625Z,85.93
2022-11-16T12:22:20.606Z,85.63
2022-11-16T12:23:20.598Z,85.42
2022-11-16T12:24:20.640Z,86.04
2022-11-16T12:25:20.537Z,86.34
2022-11-16T12:26:20.551Z,86.34
2022-11-16T12:27:20.961Z,86.14
2022-11-16T12:28:20.542Z,86.44
2022-11-16T12:29:20.513Z,86.79
2022-11-16T12:30:20.493Z,86.99
2022-11-16T12:31:23.567Z,87.20
2022-11-16T12:32:20.536Z,86.96
2022-11-16T12:33:20.472Z,86.75
2022-11-16T12:34:20.469Z,86.75
2022-11-16T12:35:20.460Z,86.90
2022-11-16T12:36:20.535Z,86.48
2022-11-16T12:37:20.451Z,86.79
2022-11-16T12:38:25.869Z,86.90
2022-11-16T12:39:21.451Z,86.79
2022-11-16T12:40:20.386Z,86.58
2022-11-16T12:41:20.394Z,86.79
2022-11-16T12:42:20.370Z,86.99
2022-11-16T12:43:20.369Z,87.10
2022-11-16T12:44:20.359Z,87.51
2022-11-16T12:45:20.394Z,87.30
2022-11-16T12:46:20.326Z,87.41
2022-11-16T12:47:20.315Z,87.61
2022-11-16T12:48:20.286Z,88.02
2022-11-16T12:49:20.338Z,87.82
2022-11-16T12:50:20.328Z,88.02
2022-11-16T12:51:20.287Z,88.23
2022-11-16T12:52:20.234Z,88.12
2022-11-16T12:53:20.317Z,87.82
2022-11-16T12:54:20.253Z,87.71